createdAt,value
2023-04-01T00:01:50.078Z,3.09
2023-04-01T00:04:16.411Z,2.95
2023-04-01T00:06:42.736Z,3.67
2023-04-01T00:09:09.030Z,3.02
2023-04-01T00:11:35.322Z,2.82
2023-04-01T00:14:01.636Z,2.68
2023-04-01T00:16:27.956Z,1.99
2023-04-01T00:18:54.266Z,2.12
2023-04-01T00:21:20.881Z,2.62
2023-04-01T00:23:47.176Z,2.21
2023-04-01T00:26:13.667Z,2.57
2023-04-01T00:28:40.048Z,3.00
2023-04-01T00:31:06.351Z,2.83
2023-04-01T00:33:32.655Z,2.41
2023-04-01T00:35:59.020Z,2.66
2023-04-01T00:38:25.374Z,2.60
2023-04-01T00:40:51.689Z,2.21
2023-04-01T00:43:18.008Z,2.08
2023-04-01T00:45:44.309Z,2.88
2023-04-01T00:48:10.645Z,3.09
2023-04-01T00:50:37.013Z,2.46
2023-04-01T00:53:03.320Z,2.51
2023-04-01T00:55:29.729Z,2.40
2023-04-01T00:57:56.288Z,2.40
2023-04-01T01:00:22.590Z,2.29
2023-04-01T01:02:48.939Z,2.68
2023-04-01T01:05:15.322Z,2.33
2023-04-01T01:07:41.624Z,2.22
2023-04-01T01:10:07.948Z,2.35
2023-04-01T01:12:34.332Z,2.76
2023-04-01T01:15:00.663Z,4.27
2023-04-01T01:17:27.017Z,4.38
2023-04-01T01:19:53.368Z,2.05
2023-04-01T01:22:19.662Z,1.85
2023-04-01T01:24:45.961Z,2.62
2023-04-01T01:27:12.353Z,2.25
2023-04-01T01:29:38.658Z,2.56
2023-04-01T01:32:04.945Z,2.08
2023-04-01T01:34:31.273Z,2.53
2023-04-01T01:36:57.566Z,2.64
2023-04-01T01:39:23.859Z,2.95
2023-04-01T01:41:50.173Z,3.34
2023-04-01T01:44:16.462Z,4.00
2023-04-01T01:46:42.765Z,4.02
2023-04-01T01:49:09.079Z,4.39
2023-04-01T01:51:35.384Z,2.99
2023-04-01T01:54:01.686Z,3.03
2023-04-01T01:56:28.003Z,2.87
2023-04-01T01:58:54.301Z,2.22
2023-04-01T02:01:20.629Z,1.75
2023-04-01T02:03:46.971Z,2.60
2023-04-01T02:06:13.278Z,2.76
2023-04-01T02:08:39.571Z,2.93
2023-04-01T02:11:05.900Z,3.33
2023-04-01T02:13:32.192Z,3.23
2023-04-01T02:15:58.545Z,2.72
2023-04-01T02:18:24.886Z,2.87
2023-04-01T02:20:51.191Z,2.63
2023-04-01T02:23:17.509Z,1.80
2023-04-01T02:25:43.847Z,2.06
2023-04-01T02:28:10.259Z,1.88
2023-04-01T02:30:36.551Z,2.12
2023-04-01T02:33:02.948Z,2.92
2023-04-01T02:35:29.283Z,4.01
2023-04-01T02:37:55.585Z,2.72
2023-04-01T02:40:21.925Z,3.16
2023-04-01T02:42:48.238Z,2.44
2023-04-01T02:45:14.550Z,2.62
2023-04-01T02:47:40.920Z,2.82
2023-04-01T02:50:07.291Z,3.34
2023-04-01T02:52:33.590Z,3.05
2023-04-01T02:54:59.911Z,2.63
2023-04-01T02:57:26.291Z,2.11
2023-04-01T02:59:52.648Z,2.37
2023-04-01T03:02:19.272Z,1.93
2023-04-01T03:04:45.601Z,2.10
2023-04-01T03:07:11.902Z,1.87
2023-04-01T03:09:38.233Z,2.45
2023-04-01T03:12:04.535Z,2.90
2023-04-01T03:14:30.836Z,1.75
2023-04-01T03:16:57.256Z,1.96
2023-04-01T03:19:23.574Z,1.52
2023-04-01T03:21:49.876Z,2.02
2023-04-01T03:24:16.198Z,2.14
2023-04-01T03:26:42.509Z,1.99
2023-04-01T03:29:08.811Z,2.19
2023-04-01T03:31:35.165Z,1.80
2023-04-01T03:34:01.477Z,2.10
2023-04-01T03:36:27.791Z,2.62
2023-04-01T03:38:54.218Z,2.84
2023-04-01T03:41:20.517Z,2.24
2023-04-01T03:43:46.817Z,2.59
2023-04-01T03:46:13.190Z,2.66
2023-04-01T03:48:39.514Z,2.40
2023-04-01T03:51:05.808Z,3.13
2023-04-01T03:53:32.138Z,2.56
2023-04-01T03:55:58.436Z,1.41
2023-04-01T03:58:24.739Z,2.38
2023-04-01T04:00:51.082Z,2.70
2023-04-01T04:03:17.478Z,2.64
2023-04-01T04:05:43.945Z,1.92
2023-04-01T04:08:10.262Z,1.92
2023-04-01T04:10:36.572Z,1.76
2023-04-01T04:13:02.868Z,1.89
2023-04-01T04:15:29.210Z,2.56
2023-04-01T04:17:55.578Z,1.72
2023-04-01T04:20:21.923Z,1.75
2023-04-01T04:22:48.245Z,1.98
2023-04-01T04:25:14.544Z,1.78
2023-04-01T04:27:40.853Z,1.47
2023-04-01T04:30:07.180Z,1.17
2023-04-01T04:32:33.516Z,1.43
2023-04-01T04:34:59.820Z,1.32
2023-04-01T04:37:26.135Z,1.37
2023-04-01T04:39:52.439Z,1.65
2023-04-01T04:42:18.729Z,2.07
2023-04-01T04:44:45.093Z,1.62
2023-04-01T04:47:11.455Z,1.50
2023-04-01T04:49:37.778Z,1.35
2023-04-01T04:52:04.084Z,1.06
2023-04-01T04:54:30.373Z,1.06
2023-04-01T04:56:56.741Z,1.03
2023-04-01T04:59:23.098Z,1.08
2023-04-01T05:01:49.480Z,0.93
2023-04-01T05:04:15.802Z,0.93
2023-04-01T05:06:42.111Z,1.04
2023-04-01T05:09:08.406Z,1.23
2023-04-01T05:11:34.704Z,1.23
2023-04-01T05:14:01.032Z,1.53
2023-04-01T05:16:27.395Z,1.33
2023-04-01T05:18:53.708Z,1.11
2023-04-01T05:21:20.026Z,1.16
2023-04-01T05:23:46.314Z,1.04
2023-04-01T05:26:12.619Z,1.28
2023-04-01T05:28:38.943Z,1.56
2023-04-01T05:31:05.242Z,0.92
2023-04-01T05:33:31.565Z,0.84
2023-04-01T05:35:57.977Z,1.21
2023-04-01T05:38:29.024Z,1.32
2023-04-01T05:40:55.324Z,2.42
2023-04-01T05:43:21.639Z,1.25
2023-04-01T05:45:47.948Z,0.90
2023-04-01T05:48:14.242Z,0.86
2023-04-01T05:50:41.799Z,0.66
2023-04-01T05:53:08.080Z,0.92
2023-04-01T05:55:34.554Z,0.98
2023-04-01T05:58:01.098Z,1.09
2023-04-01T06:00:27.389Z,0.83
2023-04-01T06:02:53.756Z,0.84
2023-04-01T06:05:20.165Z,1.16
2023-04-01T06:07:46.449Z,1.64
2023-04-01T06:10:12.781Z,0.89
2023-04-01T06:12:39.107Z,0.82
2023-04-01T06:15:05.400Z,0.73
2023-04-01T06:17:33.275Z,0.81
2023-04-01T06:19:59.602Z,0.73
2023-04-01T06:22:25.914Z,0.83
2023-04-01T06:24:52.210Z,0.94
2023-04-01T06:27:18.520Z,0.67
2023-04-01T06:29:44.834Z,0.89
2023-04-01T06:32:11.429Z,0.71
2023-04-01T06:34:37.833Z,0.74
2023-04-01T06:37:04.156Z,0.71
2023-04-01T06:39:30.453Z,0.87
2023-04-01T06:41:56.766Z,0.67
2023-04-01T06:44:23.077Z,0.74
2023-04-01T06:46:49.369Z,0.73
2023-04-01T06:49:15.689Z,0.56
2023-04-01T06:51:42.007Z,0.75
2023-04-01T06:54:08.298Z,0.98
2023-04-01T06:56:34.651Z,0.57
2023-04-01T06:59:00.973Z,0.52
2023-04-01T07:01:27.298Z,0.48
2023-04-01T07:03:53.617Z,0.69
2023-04-01T07:06:19.913Z,0.88
2023-04-01T07:08:46.321Z,0.60
2023-04-01T07:11:12.646Z,0.68
2023-04-01T07:13:38.939Z,0.71
2023-04-01T07:16:05.231Z,0.85
2023-04-01T07:18:31.534Z,1.37
2023-04-01T07:20:57.823Z,1.66
2023-04-01T07:23:24.129Z,0.97
2023-04-01T07:25:50.447Z,1.50
2023-04-01T07:28:16.740Z,1.19
2023-04-01T07:30:43.061Z,1.06
2023-04-01T07:33:09.435Z,1.43
2023-04-01T07:35:35.889Z,1.23
2023-04-01T07:38:02.172Z,0.92
2023-04-01T07:40:28.496Z,0.87
2023-04-01T07:42:54.778Z,0.49
2023-04-01T07:45:21.066Z,0.54
2023-04-01T07:47:47.419Z,0.48
2023-04-01T07:50:13.749Z,0.58
2023-04-01T07:52:40.052Z,0.62
2023-04-01T07:55:06.371Z,0.59
2023-04-01T07:57:32.717Z,0.70
2023-04-01T07:59:59.053Z,0.76
2023-04-01T08:02:25.447Z,0.64
2023-04-01T08:04:51.843Z,0.84
2023-04-01T08:07:18.223Z,0.99
2023-04-01T08:09:44.569Z,0.99
2023-04-01T08:12:10.881Z,0.66
2023-04-01T08:14:37.171Z,0.94
2023-04-01T08:17:03.487Z,1.29
2023-04-01T08:19:29.765Z,0.61
2023-04-01T08:21:56.095Z,0.66
2023-04-01T08:24:22.881Z,0.59
2023-04-01T08:26:49.240Z,0.61
2023-04-01T08:29:15.538Z,0.58
2023-04-01T08:31:41.928Z,0.47
2023-04-01T08:34:08.289Z,0.54
2023-04-01T08:36:34.656Z,0.77
2023-04-01T08:39:00.993Z,1.09
2023-04-01T08:41:27.328Z,1.79
2023-04-01T08:43:53.625Z,3.17
2023-04-01T08:46:19.990Z,1.63
2023-04-01T08:48:46.330Z,1.48
2023-04-01T08:51:12.635Z,2.84
2023-04-01T08:53:38.973Z,1.42
2023-04-01T08:56:05.292Z,1.14
2023-04-01T08:58:31.588Z,0.99
2023-04-01T09:00:57.903Z,0.84
2023-04-01T09:03:24.243Z,0.97
2023-04-01T09:05:50.678Z,0.80
2023-04-01T09:08:17.119Z,2.14
2023-04-01T09:10:43.489Z,2.60
2023-04-01T09:13:09.798Z,2.18
2023-04-01T09:15:36.426Z,1.01
2023-04-01T09:18:02.993Z,1.08
2023-04-01T09:20:29.289Z,1.30
2023-04-01T09:22:55.623Z,1.10
2023-04-01T09:25:22.022Z,2.37
2023-04-01T09:27:48.311Z,2.52
2023-04-01T09:30:14.640Z,2.07
2023-04-01T09:32:41.005Z,3.15
2023-04-01T09:35:07.350Z,2.65
2023-04-01T09:37:33.686Z,1.95
2023-04-01T09:39:59.979Z,0.97
2023-04-01T09:42:26.288Z,0.57
2023-04-01T09:44:52.599Z,0.45
2023-04-01T09:47:19.038Z,0.52
2023-04-01T09:49:45.336Z,0.66
2023-04-01T09:52:11.651Z,0.83
2023-04-01T09:54:37.941Z,1.12
2023-04-01T09:57:04.244Z,0.98
2023-04-01T09:59:30.580Z,0.89
2023-04-01T10:01:56.941Z,2.12
2023-04-01T10:04:23.291Z,1.89
2023-04-01T10:06:49.610Z,2.10
2023-04-01T10:09:15.907Z,4.37
2023-04-01T10:11:42.207Z,3.58
2023-04-01T10:14:08.556Z,1.87
2023-04-01T10:16:34.880Z,2.41
2023-04-01T10:19:01.208Z,2.58
2023-04-01T10:21:27.511Z,1.74
2023-04-01T10:23:53.802Z,2.11
2023-04-01T10:26:20.099Z,2.75
2023-04-01T10:28:46.397Z,2.46
2023-04-01T10:31:12.682Z,1.32
2023-04-01T10:33:38.997Z,1.93
2023-04-01T10:36:05.349Z,1.45
2023-04-01T10:38:31.659Z,0.61
2023-04-01T10:40:57.949Z,0.53
2023-04-01T10:43:24.255Z,0.99
2023-04-01T10:45:50.570Z,0.41
2023-04-01T10:48:16.878Z,0.67
2023-04-01T10:50:43.191Z,0.85
2023-04-01T10:53:09.469Z,0.65
2023-04-01T10:55:36.048Z,0.77
2023-04-01T10:58:02.537Z,0.76
2023-04-01T11:00:28.826Z,0.99
2023-04-01T11:02:55.165Z,1.04
2023-04-01T11:05:21.537Z,0.78
2023-04-01T11:07:55.877Z,0.84
2023-04-01T11:10:29.376Z,1.05
2023-04-01T11:12:55.665Z,0.92
2023-04-01T11:15:21.997Z,0.81
2023-04-01T11:17:48.467Z,0.81
2023-04-01T11:20:14.802Z,0.87
2023-04-01T11:22:41.168Z,0.87
2023-04-01T11:25:07.475Z,0.93
2023-04-01T11:27:33.766Z,2.84
2023-04-01T11:30:00.799Z,5.89
2023-04-01T11:32:27.340Z,4.93
2023-04-01T11:34:53.665Z,2.50
2023-04-01T11:37:19.949Z,0.90
2023-04-01T11:39:46.297Z,0.74
2023-04-01T11:42:12.994Z,0.68
2023-04-01T11:44:39.284Z,0.65
2023-04-01T11:47:05.627Z,0.72
2023-04-01T11:49:31.920Z,0.63
2023-04-01T11:51:58.194Z,0.88
2023-04-01T11:54:24.502Z,0.74
2023-04-01T11:56:50.832Z,0.97
2023-04-01T11:59:17.171Z,0.84
2023-04-01T12:01:43.541Z,1.00
2023-04-01T12:04:10.035Z,0.83
2023-04-01T12:06:36.440Z,0.84
2023-04-01T12:09:03.584Z,0.94
2023-04-01T12:11:29.873Z,0.95
2023-04-01T12:13:56.167Z,0.74
2023-04-01T12:16:22.539Z,1.37
2023-04-01T12:18:48.864Z,2.38
2023-04-01T12:21:15.165Z,1.48
2023-04-01T12:23:41.516Z,1.15
2023-04-01T12:26:07.834Z,2.13
2023-04-01T12:28:34.129Z,4.04
2023-04-01T12:31:00.450Z,3.23
2023-04-01T12:33:26.739Z,0.64
2023-04-01T12:35:53.068Z,0.37
2023-04-01T12:38:21.089Z,0.44
2023-04-01T12:40:47.994Z,0.40
2023-04-01T12:43:14.289Z,0.38
2023-04-01T12:45:40.632Z,0.37
2023-04-01T12:48:07.033Z,0.43
2023-04-01T12:50:33.345Z,0.42
2023-04-01T12:52:59.660Z,0.33
2023-04-01T12:55:25.950Z,0.31
2023-04-01T12:57:52.227Z,0.48
2023-04-01T13:00:18.538Z,0.48
2023-04-01T13:02:44.868Z,0.54
2023-04-01T13:05:11.189Z,0.38
2023-04-01T13:07:37.528Z,0.28
2023-04-01T13:10:03.838Z,0.49
2023-04-01T13:12:30.152Z,0.42
2023-04-01T13:14:56.474Z,0.46
2023-04-01T13:17:22.817Z,0.40
2023-04-01T13:20:02.100Z,0.58
2023-04-01T13:22:31.646Z,0.55
2023-04-01T13:24:57.935Z,0.61
2023-04-01T13:27:24.219Z,0.48
2023-04-01T13:29:50.565Z,0.45
2023-04-01T13:32:16.861Z,0.44
2023-04-01T13:34:43.152Z,0.50
2023-04-01T13:37:09.466Z,0.52
2023-04-01T13:39:35.757Z,0.62
2023-04-01T13:42:02.058Z,0.54
2023-04-01T13:44:28.366Z,0.55
2023-04-01T13:46:54.717Z,0.61
2023-04-01T13:49:21.153Z,0.73
2023-04-01T13:51:47.480Z,1.97
2023-04-01T13:54:13.764Z,1.77
2023-04-01T13:56:40.056Z,0.95
2023-04-01T13:59:06.361Z,0.70
2023-04-01T14:01:32.710Z,0.67
2023-04-01T14:03:59.037Z,0.91
2023-04-01T14:06:25.451Z,1.61
2023-04-01T14:08:51.738Z,0.75
2023-04-01T14:11:18.022Z,1.59
2023-04-01T14:13:44.380Z,2.38
2023-04-01T14:16:10.701Z,1.98
2023-04-01T14:18:37.016Z,0.94
2023-04-01T14:21:03.341Z,0.80
2023-04-01T14:23:29.633Z,0.73
2023-04-01T14:25:55.920Z,0.87
2023-04-01T14:28:22.237Z,2.23
2023-04-01T14:30:48.532Z,2.46
2023-04-01T14:33:14.864Z,1.03
2023-04-01T14:35:41.243Z,0.95
2023-04-01T14:38:07.540Z,1.75
2023-04-01T14:40:33.838Z,1.24
2023-04-01T14:43:00.161Z,1.19
2023-04-01T14:45:26.463Z,2.00
2023-04-01T14:47:52.817Z,2.02
2023-04-01T14:50:19.234Z,2.20
2023-04-01T14:52:45.527Z,1.64
2023-04-01T14:55:11.810Z,1.05
2023-04-01T14:57:38.163Z,0.64
2023-04-01T15:00:04.484Z,0.58
2023-04-01T15:02:31.021Z,0.86
2023-04-01T15:04:57.363Z,0.60
2023-04-01T15:07:23.682Z,0.66
2023-04-01T15:09:49.981Z,0.88
2023-04-01T15:12:16.301Z,0.69
2023-04-01T15:14:42.595Z,0.86
2023-04-01T15:17:08.889Z,0.66
2023-04-01T15:19:35.209Z,0.73
2023-04-01T15:22:01.516Z,0.69
2023-04-01T15:24:27.839Z,0.62
2023-04-01T15:26:54.158Z,0.66
2023-04-01T15:29:20.464Z,0.67
2023-04-01T15:31:46.790Z,0.62
2023-04-01T15:34:13.168Z,0.65
2023-04-01T15:36:41.427Z,0.72
2023-04-01T15:39:07.944Z,0.62
2023-04-01T15:41:34.295Z,0.93
2023-04-01T15:44:00.578Z,0.97
2023-04-01T15:46:26.893Z,0.84
2023-04-01T15:48:53.244Z,0.88
2023-04-01T15:51:19.522Z,0.74
2023-04-01T15:53:45.809Z,0.74
2023-04-01T15:56:12.111Z,0.75
2023-04-01T15:58:38.394Z,0.86
2023-04-01T16:01:04.675Z,0.74
2023-04-01T16:03:31.086Z,0.56
2023-04-01T16:05:57.518Z,0.49
2023-04-01T16:08:23.805Z,0.74
2023-04-01T16:10:50.114Z,0.62
2023-04-01T16:13:16.408Z,0.62
2023-04-01T16:15:42.710Z,0.62
2023-04-01T16:18:09.064Z,0.54
2023-04-01T16:20:35.576Z,0.43
2023-04-01T16:23:03.134Z,0.56
2023-04-01T16:25:29.438Z,0.66
2023-04-01T16:27:56.478Z,0.59
2023-04-01T16:30:22.940Z,0.75
2023-04-01T16:32:49.288Z,0.72
2023-04-01T16:35:15.595Z,0.74
2023-04-01T16:37:42.113Z,0.72
2023-04-01T16:40:08.428Z,0.61
2023-04-01T16:42:34.731Z,0.80
2023-04-01T16:45:01.033Z,1.27
2023-04-01T16:47:27.405Z,1.63
2023-04-01T16:49:53.736Z,1.73
2023-04-01T16:52:20.037Z,1.09
2023-04-01T16:54:46.355Z,0.70
2023-04-01T16:57:12.675Z,0.89
2023-04-01T16:59:38.980Z,0.85
2023-04-01T17:02:05.305Z,0.90
2023-04-01T17:04:31.624Z,0.96
2023-04-01T17:06:57.935Z,1.25
2023-04-01T17:09:24.239Z,0.91
2023-04-01T17:11:50.529Z,0.72
2023-04-01T17:14:16.840Z,0.68
2023-04-01T17:16:43.158Z,0.66
2023-04-01T17:19:09.445Z,0.69
2023-04-01T17:21:35.739Z,3.15
2023-04-01T17:24:02.066Z,3.02
2023-04-01T17:26:28.371Z,1.63
2023-04-01T17:28:54.663Z,1.66
2023-04-01T17:31:21.098Z,1.78
2023-04-01T17:33:47.408Z,1.27
2023-04-01T17:36:13.720Z,2.28
2023-04-01T17:38:40.040Z,7.82
2023-04-01T17:41:06.333Z,4.64
2023-04-01T17:43:32.623Z,2.64
2023-04-01T17:45:58.955Z,3.56
2023-04-01T17:48:25.254Z,2.64
2023-04-01T17:50:51.576Z,2.70
2023-04-01T17:53:17.962Z,4.38
2023-04-01T17:55:44.247Z,1.31
2023-04-01T17:58:10.528Z,1.12
2023-04-01T18:00:50.601Z,0.79
2023-04-01T18:03:20.210Z,0.88
2023-04-01T18:05:46.712Z,1.04
2023-04-01T18:08:12.998Z,1.45
2023-04-01T18:10:39.291Z,1.98
2023-04-01T18:13:05.594Z,2.82
2023-04-01T18:15:31.877Z,3.11
2023-04-01T18:17:58.201Z,1.96
2023-04-01T18:20:24.552Z,1.80
2023-04-01T18:22:50.860Z,3.62
2023-04-01T18:25:17.171Z,3.68
2023-04-01T18:27:43.492Z,3.45
2023-04-01T18:30:09.794Z,2.02
2023-04-01T18:32:36.119Z,1.34
2023-04-01T18:35:02.528Z,2.62
2023-04-01T18:37:28.824Z,2.93
2023-04-01T18:39:55.131Z,2.24
2023-04-01T18:42:21.454Z,2.81
2023-04-01T18:44:47.769Z,3.57
2023-04-01T18:47:14.067Z,3.28
2023-04-01T18:49:40.375Z,2.68
2023-04-01T18:52:06.688Z,2.56
2023-04-01T18:54:32.996Z,2.75
2023-04-01T18:56:59.417Z,2.19
2023-04-01T18:59:25.714Z,2.09
2023-04-01T19:01:52.001Z,2.16
2023-04-01T19:04:18.311Z,1.99
2023-04-01T19:06:44.624Z,2.35
2023-04-01T19:09:10.935Z,3.32
2023-04-01T19:11:37.260Z,3.93
2023-04-01T19:14:03.560Z,3.07
2023-04-01T19:16:29.856Z,1.34
2023-04-01T19:18:56.165Z,0.90
2023-04-01T19:21:22.463Z,0.66
2023-04-01T19:23:48.764Z,0.72
2023-04-01T19:26:15.085Z,0.73
2023-04-01T19:28:41.514Z,0.94
2023-04-01T19:31:07.829Z,0.78
2023-04-01T19:33:34.149Z,0.83
2023-04-01T19:36:00.465Z,0.90
2023-04-01T19:38:26.793Z,0.74
2023-04-01T19:40:53.105Z,0.88
2023-04-01T19:43:19.406Z,1.03
2023-04-01T19:45:45.699Z,1.07
2023-04-01T19:48:12.036Z,0.92
2023-04-01T19:50:38.340Z,0.94
2023-04-01T19:53:04.643Z,1.16
2023-04-01T19:55:30.994Z,1.15
2023-04-01T19:57:57.340Z,0.99
2023-04-01T20:00:23.777Z,1.18
2023-04-01T20:02:50.399Z,0.98
2023-04-01T20:05:16.822Z,1.16
2023-04-01T20:07:43.187Z,1.17
2023-04-01T20:10:09.491Z,1.34
2023-04-01T20:12:35.819Z,1.64
2023-04-01T20:15:02.129Z,1.65
2023-04-01T20:17:28.486Z,1.32
2023-04-01T20:19:54.865Z,2.17
2023-04-01T20:22:21.157Z,1.61
2023-04-01T20:24:47.477Z,1.50
2023-04-01T20:27:13.937Z,1.44
2023-04-01T20:29:40.230Z,1.55
2023-04-01T20:32:06.594Z,1.41
2023-04-01T20:34:32.928Z,1.39
2023-04-01T20:36:59.248Z,1.23
2023-04-01T20:39:25.577Z,1.21
2023-04-01T20:41:51.877Z,1.46
2023-04-01T20:44:18.161Z,1.60
2023-04-01T20:46:46.192Z,1.41
2023-04-01T20:49:13.188Z,1.43
2023-04-01T20:51:39.488Z,1.59
2023-04-01T20:54:05.808Z,3.36
2023-04-01T20:56:32.115Z,3.27
2023-04-01T20:58:58.395Z,2.63
2023-04-01T21:01:24.718Z,1.80
2023-04-01T21:03:51.040Z,1.24
2023-04-01T21:06:17.331Z,1.17
2023-04-01T21:08:43.747Z,1.24
2023-04-01T21:11:10.114Z,2.16
2023-04-01T21:13:36.475Z,2.22
2023-04-01T21:16:02.896Z,2.10
2023-04-01T21:18:29.335Z,2.57
2023-04-01T21:20:55.704Z,2.12
2023-04-01T21:23:22.096Z,2.06
2023-04-01T21:25:48.471Z,2.62
2023-04-01T21:28:14.857Z,3.87
2023-04-01T21:30:41.247Z,2.79
2023-04-01T21:33:07.744Z,1.42
2023-04-01T21:35:34.446Z,1.68
2023-04-01T21:38:01.032Z,1.35
2023-04-01T21:40:30.204Z,1.03
2023-04-01T21:42:56.571Z,1.26
2023-04-01T21:45:22.952Z,1.23
2023-04-01T21:47:49.332Z,1.16
2023-04-01T21:50:15.822Z,1.06
2023-04-01T21:52:42.204Z,0.95
2023-04-01T21:55:08.586Z,1.13
2023-04-01T21:57:36.125Z,1.52
2023-04-01T22:00:03.733Z,1.53
2023-04-01T22:02:30.133Z,1.33
2023-04-01T22:04:56.645Z,1.16
2023-04-01T22:07:23.042Z,1.49
2023-04-01T22:09:49.423Z,1.13
2023-04-01T22:12:15.821Z,1.10
2023-04-01T22:14:42.268Z,0.97
2023-04-01T22:17:08.629Z,1.40
2023-04-01T22:19:35.008Z,1.69
2023-04-01T22:22:01.417Z,1.66
2023-04-01T22:24:27.800Z,1.00
2023-04-01T22:26:54.177Z,0.83
2023-04-01T22:29:20.579Z,0.62
2023-04-01T22:31:46.980Z,0.76
2023-04-01T22:34:13.402Z,0.67
2023-04-01T22:36:39.783Z,0.79
2023-04-01T22:39:06.146Z,0.80
2023-04-01T22:41:32.507Z,0.84
2023-04-01T22:44:00.080Z,0.88
2023-04-01T22:46:26.506Z,0.67
2023-04-01T22:48:52.945Z,1.31
2023-04-01T22:51:19.476Z,1.82
2023-04-01T22:53:45.868Z,1.59
2023-04-01T22:56:12.238Z,0.82
2023-04-01T22:58:38.633Z,0.67
2023-04-01T23:01:05.030Z,0.78
2023-04-01T23:03:31.440Z,1.55
2023-04-01T23:05:57.844Z,2.30
2023-04-01T23:08:24.220Z,2.47
2023-04-01T23:10:50.612Z,1.75
2023-04-01T23:13:17.008Z,1.28
2023-04-01T23:15:43.401Z,1.34
2023-04-01T23:18:09.805Z,1.23
2023-04-01T23:20:36.292Z,1.24
2023-04-01T23:23:02.662Z,1.26
2023-04-01T23:25:29.044Z,1.21
2023-04-01T23:27:55.502Z,0.94
2023-04-01T23:30:21.872Z,1.11
2023-04-01T23:32:48.310Z,1.02
2023-04-01T23:35:14.694Z,0.97
2023-04-01T23:37:41.064Z,1.06
2023-04-01T23:40:07.426Z,1.28
2023-04-01T23:42:33.896Z,1.06
2023-04-01T23:45:00.275Z,1.17
2023-04-01T23:47:26.688Z,1.07
2023-04-01T23:49:53.116Z,1.58
2023-04-01T23:52:19.492Z,2.91
2023-04-01T23:54:45.890Z,2.16
2023-04-01T23:57:12.359Z,1.98
2023-04-01T23:59:38.759Z,1.41
